createdAt,value
2018-07-14T00:02:20.881Z,98206.02
2018-07-14T00:04:49.734Z,98207.20
2018-07-14T00:07:18.544Z,98207.54
2018-07-14T00:09:47.566Z,98208.77
2018-07-14T00:12:16.646Z,98205.48
2018-07-14T00:14:45.481Z,98200.37
2018-07-14T00:17:14.463Z,98204.91
2018-07-14T00:19:43.338Z,98207.42
2018-07-14T00:22:12.224Z,98205.72
2018-07-14T00:24:40.961Z,98201.08
2018-07-14T00:27:09.829Z,98204.63
2018-07-14T00:29:38.730Z,98205.89
2018-07-14T00:32:08.320Z,98201.02
2018-07-14T00:34:37.094Z,98200.69
2018-07-14T00:37:06.316Z,98200.47
2018-07-14T00:39:35.312Z,98204.00
2018-07-14T00:42:04.110Z,98205.27
2018-07-14T00:44:32.876Z,98205.15
2018-07-14T00:47:02.146Z,98205.19
2018-07-14T00:49:31.385Z,98200.39
2018-07-14T00:52:00.218Z,98204.84
2018-07-14T00:54:29.526Z,98204.98
2018-07-14T00:56:58.525Z,98201.11
2018-07-14T00:59:28.159Z,98202.48
2018-07-14T01:01:57.006Z,98206.70
2018-07-14T01:04:25.862Z,98195.55
2018-07-14T01:06:54.876Z,98205.02
2018-07-14T01:09:23.892Z,98197.17
2018-07-14T01:11:53.001Z,98196.25
2018-07-14T01:14:22.147Z,98193.25
2018-07-14T01:16:50.893Z,98191.66
2018-07-14T01:19:19.951Z,98191.68
2018-07-14T01:21:48.634Z,98189.86
2018-07-14T01:24:17.937Z,98196.69
2018-07-14T01:26:46.688Z,98192.23
2018-07-14T01:29:15.744Z,98201.76
2018-07-14T01:31:44.705Z,98198.47
2018-07-14T01:34:13.415Z,98204.38
2018-07-14T01:36:42.655Z,98215.05
2018-07-14T01:39:11.445Z,98211.19
2018-07-14T01:41:40.434Z,98212.08
2018-07-14T01:44:09.213Z,98210.27
2018-07-14T01:46:37.944Z,98207.45
2018-07-14T01:49:07.040Z,98207.45
2018-07-14T01:51:35.921Z,98212.10
2018-07-14T01:54:04.760Z,98209.37
2018-07-14T01:56:33.529Z,98211.88
2018-07-14T01:59:02.381Z,98216.86
2018-07-14T02:01:31.170Z,98207.66
2018-07-14T02:03:59.987Z,98202.55
2018-07-14T02:06:28.752Z,98201.95
2018-07-14T02:08:57.508Z,98201.50
2018-07-14T02:11:26.182Z,98198.78
2018-07-14T02:13:55.397Z,98199.34
2018-07-14T02:16:24.163Z,98198.06
2018-07-14T02:18:53.045Z,98201.34
2018-07-14T02:21:22.098Z,98198.05
2018-07-14T02:23:50.809Z,98204.08
2018-07-14T02:26:19.575Z,98202.72
2018-07-14T02:28:48.950Z,98199.96
2018-07-14T02:31:17.717Z,98197.23
2018-07-14T02:33:46.641Z,98200.88
2018-07-14T02:36:15.406Z,98202.97
2018-07-14T02:38:44.618Z,98203.88
2018-07-14T02:41:13.527Z,98206.69
2018-07-14T02:43:42.326Z,98213.16
2018-07-14T02:46:11.200Z,98208.36
2018-07-14T02:48:40.002Z,98212.52
2018-07-14T02:51:08.879Z,98215.70
2018-07-14T02:53:37.601Z,98214.90
2018-07-14T02:56:06.465Z,98212.86
2018-07-14T02:58:35.468Z,98214.90
2018-07-14T03:01:04.400Z,98209.22
2018-07-14T03:03:33.214Z,98217.97
2018-07-14T03:06:02.116Z,98221.69
2018-07-14T03:08:30.906Z,98227.14
2018-07-14T03:10:59.697Z,98225.55
2018-07-14T03:13:28.610Z,98232.40
2018-07-14T03:15:57.357Z,98229.08
2018-07-14T03:18:26.243Z,98226.49
2018-07-14T03:20:56.130Z,98227.82
2018-07-14T03:23:25.179Z,98228.02
2018-07-14T03:25:54.085Z,98227.70
2018-07-14T03:28:22.806Z,98229.72
2018-07-14T03:30:51.661Z,98228.32
2018-07-14T03:33:20.711Z,98224.83
2018-07-14T03:35:49.747Z,98225.97
2018-07-14T03:38:18.546Z,98224.50
2018-07-14T03:40:47.278Z,98224.61
2018-07-14T03:43:16.149Z,98228.89
2018-07-14T03:45:45.025Z,98233.20
2018-07-14T03:48:15.020Z,98233.20
2018-07-14T03:50:44.202Z,98232.71
2018-07-14T03:53:13.141Z,98232.94
2018-07-14T03:55:42.025Z,98227.48
2018-07-14T03:58:10.771Z,98235.58
2018-07-14T04:00:39.681Z,98230.58
2018-07-14T04:03:08.574Z,98233.45
2018-07-14T04:05:37.685Z,98239.94
2018-07-14T04:08:06.708Z,98236.30
2018-07-14T04:10:35.761Z,98240.91
2018-07-14T04:13:04.890Z,98244.48
2018-07-14T04:15:33.563Z,98244.29
2018-07-14T04:18:06.015Z,98244.33
2018-07-14T04:20:36.211Z,98244.78
2018-07-14T04:23:05.175Z,98249.33
2018-07-14T04:25:34.223Z,98247.89
2018-07-14T04:28:03.026Z,98251.64
2018-07-14T04:30:32.117Z,98254.41
2018-07-14T04:33:01.169Z,98258.27
2018-07-14T04:35:30.247Z,98257.50
2018-07-14T04:37:59.117Z,98256.94
2018-07-14T04:40:27.826Z,98251.77
2018-07-14T04:42:56.820Z,98248.28
2018-07-14T04:45:25.714Z,98254.98
2018-07-14T04:47:54.498Z,98252.94
2018-07-14T04:50:23.346Z,98248.63
2018-07-14T04:52:52.462Z,98250.21
2018-07-14T04:55:21.232Z,98251.12
2018-07-14T04:57:50.195Z,98246.80
2018-07-14T05:00:19.186Z,98252.48
2018-07-14T05:02:48.018Z,98246.47
2018-07-14T05:05:16.878Z,98244.76
2018-07-14T05:07:45.825Z,98245.69
2018-07-14T05:10:14.697Z,98246.72
2018-07-14T05:12:43.542Z,98246.86
2018-07-14T05:15:12.367Z,98254.36
2018-07-14T05:17:41.117Z,98256.86
2018-07-14T05:20:10.081Z,98255.37
2018-07-14T05:22:38.773Z,98255.52
2018-07-14T05:25:07.923Z,98255.87
2018-07-14T05:27:36.722Z,98254.19
2018-07-14T05:30:06.637Z,98260.26
2018-07-14T05:32:35.523Z,98259.93
2018-07-14T05:35:04.755Z,98258.55
2018-07-14T05:37:33.910Z,98264.14
2018-07-14T05:40:02.898Z,98268.83
2018-07-14T05:42:31.620Z,98266.09
2018-07-14T05:45:00.681Z,98267.70
2018-07-14T05:47:29.614Z,98266.23
2018-07-14T05:49:58.480Z,98268.86
2018-07-14T05:52:27.387Z,98272.52
2018-07-14T05:54:56.202Z,98270.11
2018-07-14T05:57:26.011Z,98269.06
2018-07-14T05:59:54.789Z,98256.77
2018-07-14T06:02:23.960Z,98261.92
2018-07-14T06:04:52.710Z,98255.53
2018-07-14T06:07:21.510Z,98258.58
2018-07-14T06:09:50.424Z,98255.11
2018-07-14T06:12:19.344Z,98258.08
2018-07-14T06:14:48.207Z,98265.64
2018-07-14T06:17:17.262Z,98258.89
2018-07-14T06:19:46.023Z,98266.86
2018-07-14T06:22:14.993Z,98261.13
2018-07-14T06:24:43.758Z,98260.30
2018-07-14T06:27:12.661Z,98257.85
2018-07-14T06:29:41.531Z,98252.79
2018-07-14T06:32:10.659Z,98250.23
2018-07-14T06:34:39.446Z,98249.05
2018-07-14T06:37:08.257Z,98252.84
2018-07-14T06:39:37.011Z,98256.98
2018-07-14T06:42:06.032Z,98252.66
2018-07-14T06:44:34.923Z,98260.44
2018-07-14T06:47:03.865Z,98253.98
2018-07-14T06:49:32.567Z,98249.11
2018-07-14T06:52:01.579Z,98255.30
2018-07-14T06:54:30.428Z,98254.79
2018-07-14T06:56:59.743Z,98250.26
2018-07-14T06:59:28.546Z,98250.13
2018-07-14T07:01:57.439Z,98251.39
2018-07-14T07:04:26.435Z,98250.48
2018-07-14T07:06:55.117Z,98248.69
2018-07-14T07:09:23.990Z,98250.17
2018-07-14T07:11:53.250Z,98262.61
2018-07-14T07:14:22.036Z,98254.25
2018-07-14T07:16:50.914Z,98255.90
2018-07-14T07:19:19.729Z,98263.57
2018-07-14T07:21:48.922Z,98258.77
2018-07-14T07:24:17.978Z,98264.34
2018-07-14T07:26:46.814Z,98267.88
2018-07-14T07:29:15.928Z,98267.53
2018-07-14T07:31:45.370Z,98257.69
2018-07-14T07:34:14.712Z,98257.95
2018-07-14T07:36:43.732Z,98265.02
2018-07-14T07:39:12.626Z,98268.48
2018-07-14T07:41:41.495Z,98260.49
2018-07-14T07:44:10.610Z,98261.28
2018-07-14T07:46:39.597Z,98257.94
2018-07-14T07:49:08.590Z,98256.43
2018-07-14T07:51:37.578Z,98248.53
2018-07-14T07:54:06.655Z,98248.00
2018-07-14T07:56:35.920Z,98248.11
2018-07-14T07:59:05.098Z,98248.11
2018-07-14T08:01:33.993Z,98248.97
2018-07-14T08:04:02.871Z,98247.22
2018-07-14T08:06:31.797Z,98249.31
2018-07-14T08:09:01.029Z,98246.45
2018-07-14T08:11:29.920Z,98246.80
2018-07-14T08:13:59.020Z,98251.44
2018-07-14T08:16:28.179Z,98240.80
2018-07-14T08:18:57.028Z,98237.34
2018-07-14T08:21:25.921Z,98239.39
2018-07-14T08:23:55.301Z,98240.92
2018-07-14T08:26:24.541Z,98240.87
2018-07-14T08:28:53.533Z,98229.56
2018-07-14T08:31:22.620Z,98234.69
2018-07-14T08:33:52.072Z,98231.97
2018-07-14T08:36:20.969Z,98226.16
2018-07-14T08:38:49.988Z,98234.26
2018-07-14T08:41:19.011Z,98230.05
2018-07-14T08:43:47.862Z,98233.03
2018-07-14T08:46:17.007Z,98232.02
2018-07-14T08:48:45.835Z,98222.89
2018-07-14T08:51:14.848Z,98225.84
2018-07-14T08:53:43.999Z,98220.91
2018-07-14T08:56:12.917Z,98217.42
2018-07-14T08:58:41.858Z,98223.66
2018-07-14T09:01:10.679Z,98228.05
2018-07-14T09:03:40.959Z,98226.28
2018-07-14T09:06:10.431Z,98223.02
2018-07-14T09:08:39.501Z,98222.38
2018-07-14T09:11:08.397Z,98223.32
2018-07-14T09:13:37.370Z,98212.89
2018-07-14T09:16:06.670Z,98216.72
2018-07-14T09:18:35.965Z,98214.62
2018-07-14T09:21:05.029Z,98213.61
2018-07-14T09:23:34.301Z,98213.84
2018-07-14T09:26:03.397Z,98210.55
2018-07-14T09:28:32.993Z,98208.94
2018-07-14T09:31:02.069Z,98205.86
2018-07-14T09:33:33.028Z,98204.63
2018-07-14T09:36:03.833Z,98202.48
2018-07-14T09:38:32.977Z,98204.69
2018-07-14T09:41:02.046Z,98211.78
2018-07-14T09:43:31.180Z,98201.20
2018-07-14T09:46:00.378Z,98197.03
2018-07-14T09:48:29.379Z,98193.52
2018-07-14T09:50:58.196Z,98195.50
2018-07-14T09:53:27.015Z,98198.64
2018-07-14T09:55:56.245Z,98200.66
2018-07-14T09:58:25.120Z,98195.91
2018-07-14T10:00:59.314Z,98187.47
2018-07-14T10:03:28.240Z,98191.02
2018-07-14T10:05:57.527Z,98175.98
2018-07-14T10:08:26.357Z,98182.73
2018-07-14T10:10:55.181Z,98180.14
2018-07-14T10:13:24.621Z,98176.19
2018-07-14T10:15:53.702Z,98181.75
2018-07-14T10:18:22.623Z,98167.30
2018-07-14T10:20:51.709Z,98178.16
2018-07-14T10:23:20.638Z,98184.30
2018-07-14T10:25:49.899Z,98177.95
2018-07-14T10:28:18.700Z,98168.28
2018-07-14T10:30:47.651Z,98158.31
2018-07-14T10:33:16.613Z,98157.37
2018-07-14T10:35:45.419Z,98155.06
2018-07-14T10:38:14.077Z,98154.05
2018-07-14T10:40:42.835Z,98144.95
2018-07-14T10:43:11.887Z,98146.91
2018-07-14T10:45:40.869Z,98141.36
2018-07-14T10:48:09.954Z,98145.50
2018-07-14T10:50:38.762Z,98145.34
2018-07-14T10:53:07.801Z,98132.90
2018-07-14T10:55:36.721Z,98126.05
2018-07-14T10:58:12.260Z,98124.41
2018-07-14T11:00:41.181Z,98124.22
2018-07-14T11:03:10.329Z,98128.23
2018-07-14T11:05:39.150Z,98127.86
2018-07-14T11:08:08.165Z,98122.24
2018-07-14T11:10:37.126Z,98119.37
2018-07-14T11:13:06.185Z,98122.80
2018-07-14T11:15:34.994Z,98123.11
2018-07-14T11:18:04.270Z,98114.28
2018-07-14T11:20:33.282Z,98120.66
2018-07-14T11:23:02.029Z,98113.78
2018-07-14T11:25:31.319Z,98123.11
2018-07-14T11:28:00.088Z,98118.30
2018-07-14T11:30:28.928Z,98112.85
2018-07-14T11:32:57.961Z,98107.03
2018-07-14T11:35:27.138Z,98109.67
2018-07-14T11:37:56.350Z,98101.48
2018-07-14T11:40:25.391Z,98099.33
2018-07-14T11:42:54.332Z,98093.77
2018-07-14T11:45:23.429Z,98091.73
2018-07-14T11:47:52.254Z,98089.23
2018-07-14T11:50:21.307Z,98089.05
2018-07-14T11:52:50.205Z,98095.36
2018-07-14T11:55:19.069Z,98083.84
2018-07-14T11:57:48.111Z,98086.84
2018-07-14T12:00:16.955Z,98077.69
2018-07-14T12:02:45.877Z,98080.63
2018-07-14T12:05:14.746Z,98080.48
2018-07-14T12:07:43.781Z,98072.36
2018-07-14T12:10:12.737Z,98072.13
2018-07-14T12:12:41.830Z,98073.45
2018-07-14T12:15:11.205Z,98067.32
2018-07-14T12:17:39.975Z,98059.50
2018-07-14T12:20:09.075Z,98057.52
2018-07-14T12:22:38.070Z,98058.98
2018-07-14T12:25:06.799Z,98046.69
2018-07-14T12:27:35.672Z,98056.52
2018-07-14T12:30:04.959Z,98059.94
2018-07-14T12:32:33.642Z,98049.16
2018-07-14T12:35:02.521Z,98052.58
2018-07-14T12:37:31.481Z,98050.60
2018-07-14T12:40:01.015Z,98056.11
2018-07-14T12:42:29.971Z,98046.68
2018-07-14T12:44:58.846Z,98053.91
2018-07-14T12:47:27.770Z,98048.70
2018-07-14T12:49:56.792Z,98032.47
2018-07-14T12:52:25.700Z,98035.66
2018-07-14T12:54:54.618Z,98038.17
2018-07-14T12:57:23.533Z,98040.97
2018-07-14T12:59:52.535Z,98037.50
2018-07-14T13:02:21.288Z,98034.89
2018-07-14T13:04:50.661Z,98029.34
2018-07-14T13:07:19.712Z,98020.66
2018-07-14T13:09:48.793Z,98025.34
2018-07-14T13:12:17.914Z,98021.60
2018-07-14T13:14:46.814Z,98013.04
2018-07-14T13:17:16.133Z,98021.95
2018-07-14T13:19:45.125Z,98012.55
2018-07-14T13:22:14.107Z,98013.18
2018-07-14T13:24:43.095Z,98015.19
2018-07-14T13:27:12.150Z,98013.28
2018-07-14T13:29:41.382Z,98006.13
2018-07-14T13:32:10.350Z,98003.22
2018-07-14T13:34:39.494Z,98001.28
2018-07-14T13:37:08.530Z,98004.43
2018-07-14T13:39:37.585Z,98007.27
2018-07-14T13:42:06.805Z,98001.17
2018-07-14T13:44:36.107Z,98004.81
2018-07-14T13:47:05.290Z,97994.59
2018-07-14T13:49:34.498Z,97985.73
2018-07-14T13:52:03.457Z,97986.64
2018-07-14T13:54:32.606Z,97990.64
2018-07-14T13:57:01.955Z,97979.53
2018-07-14T13:59:31.013Z,97988.25
2018-07-14T14:02:00.257Z,97985.48
2018-07-14T14:04:29.493Z,97987.33
2018-07-14T14:06:58.366Z,97986.98
2018-07-14T14:09:27.247Z,97982.06
2018-07-14T14:11:56.019Z,97979.30
2018-07-14T14:14:24.916Z,97966.11
2018-07-14T14:16:53.925Z,97965.13
2018-07-14T14:19:23.094Z,97969.56
2018-07-14T14:21:52.086Z,97973.21
2018-07-14T14:24:21.356Z,97961.20
2018-07-14T14:26:51.372Z,97960.25
2018-07-14T14:29:20.485Z,97959.23
2018-07-14T14:31:49.509Z,97957.73
2018-07-14T14:34:18.311Z,97960.38
2018-07-14T14:36:47.177Z,97963.14
2018-07-14T14:39:15.980Z,97957.89
2018-07-14T14:41:44.755Z,97967.86
2018-07-14T14:44:13.852Z,97964.38
2018-07-14T14:46:42.772Z,97960.99
2018-07-14T14:49:11.771Z,97966.08
2018-07-14T14:51:41.018Z,97961.45
2018-07-14T14:54:10.659Z,97962.89
2018-07-14T14:56:39.609Z,97966.22
2018-07-14T14:59:08.649Z,97966.55
2018-07-14T15:01:37.704Z,97962.07
2018-07-14T15:04:07.642Z,97956.38
2018-07-14T15:06:36.744Z,97962.38
2018-07-14T15:09:06.851Z,97948.95
2018-07-14T15:11:36.216Z,97956.15
2018-07-14T15:14:05.662Z,97951.05
2018-07-14T15:16:34.835Z,97958.33
2018-07-14T15:19:04.080Z,97957.45
2018-07-14T15:21:32.948Z,97947.43
2018-07-14T15:24:02.302Z,97948.31
2018-07-14T15:26:31.360Z,97943.48
2018-07-14T15:29:00.387Z,97945.16
2018-07-14T15:31:29.277Z,97950.72
2018-07-14T15:33:58.477Z,97944.96
2018-07-14T15:36:27.423Z,97946.20
2018-07-14T15:38:56.855Z,97954.07
2018-07-14T15:41:25.743Z,97949.30
2018-07-14T15:43:54.821Z,97950.02
2018-07-14T15:46:24.133Z,97944.80
2018-07-14T15:48:53.018Z,97951.66
2018-07-14T15:51:21.956Z,97944.56
2018-07-14T15:53:50.782Z,97950.73
2018-07-14T15:56:19.755Z,97956.20
2018-07-14T15:58:48.503Z,97950.81
2018-07-14T16:01:17.655Z,97952.19
2018-07-14T16:03:46.522Z,97949.30
2018-07-14T16:06:15.393Z,97954.19
2018-07-14T16:08:44.354Z,97947.31
2018-07-14T16:11:13.349Z,97949.39
2018-07-14T16:13:42.312Z,97949.45
2018-07-14T16:16:11.221Z,97943.56
2018-07-14T16:18:40.527Z,97943.13
2018-07-14T16:21:09.535Z,97936.66
2018-07-14T16:23:38.369Z,97932.25
2018-07-14T16:26:07.261Z,97927.48
2018-07-14T16:28:37.275Z,97932.05
2018-07-14T16:31:06.632Z,97931.06
2018-07-14T16:33:35.433Z,97922.70
2018-07-14T16:36:04.475Z,97921.39
2018-07-14T16:38:33.567Z,97923.81
2018-07-14T16:41:02.775Z,97922.36
2018-07-14T16:43:31.953Z,97922.02
2018-07-14T16:46:00.955Z,97930.02
2018-07-14T16:48:29.735Z,97926.59
2018-07-14T16:50:58.746Z,97927.09
2018-07-14T16:53:27.981Z,97924.71
2018-07-14T16:55:57.150Z,97928.49
2018-07-14T16:58:26.375Z,97922.95
2018-07-14T17:00:55.253Z,97925.70
2018-07-14T17:03:24.248Z,97930.00
2018-07-14T17:05:53.475Z,97927.30
2018-07-14T17:08:22.355Z,97922.02
2018-07-14T17:10:51.186Z,97922.47
2018-07-14T17:13:20.354Z,97922.48
2018-07-14T17:15:49.646Z,97921.41
2018-07-14T17:18:18.640Z,97914.90
2018-07-14T17:20:47.750Z,97913.34
2018-07-14T17:23:16.599Z,97908.92
2018-07-14T17:25:45.824Z,97909.11
2018-07-14T17:28:14.694Z,97911.16
2018-07-14T17:30:44.024Z,97909.22
2018-07-14T17:33:13.119Z,97905.66
2018-07-14T17:35:42.123Z,97906.34
2018-07-14T17:38:11.303Z,97904.16
2018-07-14T17:40:40.345Z,97900.88
2018-07-14T17:43:09.599Z,97904.20
2018-07-14T17:45:38.299Z,97905.80
2018-07-14T17:48:07.682Z,97904.41
2018-07-14T17:50:36.500Z,97894.80
2018-07-14T17:53:06.398Z,97895.64
2018-07-14T17:55:35.595Z,97890.73
2018-07-14T17:58:04.544Z,97885.97
2018-07-14T18:00:33.735Z,97889.84
2018-07-14T18:03:07.601Z,97884.73
2018-07-14T18:05:36.383Z,97882.63
2018-07-14T18:08:07.381Z,97883.69
2018-07-14T18:10:36.410Z,97877.45
2018-07-14T18:13:05.339Z,97876.93
2018-07-14T18:15:34.210Z,97874.23
2018-07-14T18:18:03.269Z,97882.36
2018-07-14T18:20:32.227Z,97881.47
2018-07-14T18:23:02.098Z,97880.52
2018-07-14T18:25:31.209Z,97876.11
2018-07-14T18:28:00.046Z,97873.83
2018-07-14T18:30:28.996Z,97882.97
2018-07-14T18:32:57.791Z,97890.47
2018-07-14T18:35:26.755Z,97890.14
2018-07-14T18:37:56.012Z,97885.55
2018-07-14T18:40:24.973Z,97891.56
2018-07-14T18:42:53.867Z,97884.25
2018-07-14T18:45:22.815Z,97887.28
2018-07-14T18:47:51.840Z,97886.44
2018-07-14T18:50:21.225Z,97887.02
2018-07-14T18:52:50.351Z,97889.09
2018-07-14T18:55:19.396Z,97888.94
2018-07-14T18:57:48.344Z,97890.00
2018-07-14T19:00:17.824Z,97897.81
2018-07-14T19:02:46.845Z,97899.41
2018-07-14T19:05:15.729Z,97897.50
2018-07-14T19:07:44.816Z,97896.53
2018-07-14T19:10:13.830Z,97895.58
2018-07-14T19:12:42.900Z,97895.63
2018-07-14T19:15:11.796Z,97903.56
2018-07-14T19:17:40.785Z,97902.39
2018-07-14T19:20:09.780Z,97899.07
2018-07-14T19:22:38.520Z,97900.05
2018-07-14T19:25:08.189Z,97906.78
2018-07-14T19:27:37.274Z,97900.84
2018-07-14T19:30:06.449Z,97901.26
2018-07-14T19:32:35.645Z,97908.38
2018-07-14T19:35:04.495Z,97915.27
2018-07-14T19:37:33.323Z,97915.66
2018-07-14T19:40:02.294Z,97918.42
2018-07-14T19:42:31.261Z,97914.27
2018-07-14T19:45:00.356Z,97918.39
2018-07-14T19:47:29.217Z,97920.52
2018-07-14T19:49:58.104Z,97922.09
2018-07-14T19:52:26.918Z,97925.43
2018-07-14T19:54:55.714Z,97936.05
2018-07-14T19:57:24.685Z,97932.28
2018-07-14T19:59:53.562Z,97930.70
2018-07-14T20:02:22.717Z,97928.13
2018-07-14T20:04:51.793Z,97930.30
2018-07-14T20:07:20.607Z,97934.98
2018-07-14T20:09:49.389Z,97926.89
2018-07-14T20:12:18.435Z,97932.99
2018-07-14T20:14:47.543Z,97926.27
2018-07-14T20:17:16.582Z,97939.45
2018-07-14T20:19:45.641Z,97932.50
2018-07-14T20:22:14.886Z,97936.17
2018-07-14T20:24:43.866Z,97940.49
2018-07-14T20:27:13.020Z,97944.73
2018-07-14T20:29:42.306Z,97934.66
2018-07-14T20:32:11.081Z,97939.19
2018-07-14T20:34:40.249Z,97945.05
2018-07-14T20:37:09.316Z,97941.45
2018-07-14T20:39:38.332Z,97943.20
2018-07-14T20:42:07.493Z,97941.73
2018-07-14T20:44:36.658Z,97946.95
2018-07-14T20:47:05.706Z,97942.35
2018-07-14T20:49:34.781Z,97957.04
2018-07-14T20:52:03.654Z,97960.50
2018-07-14T20:54:32.698Z,97962.25
2018-07-14T20:57:01.452Z,97963.75
2018-07-14T20:59:30.209Z,97961.97
2018-07-14T21:01:59.037Z,97960.59
2018-07-14T21:04:27.730Z,97955.83
2018-07-14T21:06:56.720Z,97959.85
2018-07-14T21:09:25.582Z,97952.08
2018-07-14T21:11:54.803Z,97961.44
2018-07-14T21:14:23.626Z,97955.94
2018-07-14T21:16:52.642Z,97958.23
2018-07-14T21:19:21.670Z,97964.11
2018-07-14T21:21:50.827Z,97961.70
2018-07-14T21:24:19.759Z,97963.67
2018-07-14T21:26:48.844Z,97964.80
2018-07-14T21:29:17.774Z,97956.42
2018-07-14T21:31:46.611Z,97965.19
2018-07-14T21:34:15.545Z,97967.32
2018-07-14T21:36:44.578Z,97971.55
2018-07-14T21:39:13.347Z,97966.35
2018-07-14T21:41:42.123Z,97970.20
2018-07-14T21:44:11.045Z,97978.23
2018-07-14T21:46:40.082Z,97974.88
2018-07-14T21:49:09.106Z,97980.51
2018-07-14T21:51:37.854Z,97975.80
2018-07-14T21:54:07.081Z,97973.06
2018-07-14T21:56:35.842Z,97972.55
2018-07-14T21:59:04.861Z,97976.26
2018-07-14T22:01:37.858Z,97969.94
2018-07-14T22:04:07.175Z,97977.11
2018-07-14T22:06:36.048Z,97975.33
2018-07-14T22:09:05.909Z,97973.34
2018-07-14T22:11:34.682Z,97974.60
2018-07-14T22:14:03.763Z,97970.38
2018-07-14T22:16:32.677Z,97974.96
2018-07-14T22:19:01.630Z,97976.22
2018-07-14T22:21:30.574Z,97982.66
2018-07-14T22:23:59.745Z,97978.55
2018-07-14T22:26:29.266Z,97983.83
2018-07-14T22:28:58.409Z,97986.28
2018-07-14T22:31:28.352Z,97987.41
2018-07-14T22:33:57.547Z,97978.39
2018-07-14T22:36:26.668Z,97977.98
2018-07-14T22:38:55.844Z,97976.91
2018-07-14T22:41:24.962Z,97985.66
2018-07-14T22:43:54.221Z,97989.48
2018-07-14T22:46:23.223Z,97986.45
2018-07-14T22:48:52.012Z,97987.38
2018-07-14T22:51:20.691Z,97988.03
2018-07-14T22:53:49.701Z,97981.34
2018-07-14T22:56:18.533Z,97987.83
2018-07-14T22:58:47.445Z,97984.72
2018-07-14T23:01:16.305Z,97994.05
2018-07-14T23:03:45.298Z,97985.98
2018-07-14T23:06:14.378Z,97996.44
2018-07-14T23:08:43.145Z,97992.98
2018-07-14T23:11:11.961Z,97986.78
2018-07-14T23:13:40.834Z,97991.62
2018-07-14T23:16:09.814Z,97987.94
2018-07-14T23:18:38.579Z,97992.20
2018-07-14T23:21:07.420Z,97991.27
2018-07-14T23:23:36.119Z,97990.48
2018-07-14T23:26:05.151Z,97991.27
2018-07-14T23:28:34.073Z,97998.27
2018-07-14T23:31:02.956Z,97998.03
2018-07-14T23:33:31.819Z,97994.63
2018-07-14T23:36:00.645Z,97991.73
2018-07-14T23:38:29.536Z,97985.46
2018-07-14T23:40:58.493Z,97987.10
2018-07-14T23:43:27.282Z,97991.20
2018-07-14T23:48:30.337Z,97990.93
2018-07-14T23:50:59.230Z,97983.20
2018-07-14T23:53:28.108Z,97987.03
2018-07-14T23:55:57.197Z,97988.45
2018-07-14T23:58:26.070Z,97986.50
